createdAt,value
2022-11-02T00:03:56.271Z,47.83
2022-11-02T00:09:33.267Z,51.97
2022-11-02T00:15:11.283Z,57.90
2022-11-02T00:20:51.300Z,54.63
2022-11-02T00:26:28.296Z,54.53
2022-11-02T00:32:06.272Z,59.00
2022-11-02T00:37:43.285Z,61.47
2022-11-02T00:43:20.263Z,59.65
2022-11-02T00:48:58.272Z,53.67
2022-11-02T00:54:37.270Z,59.55
2022-11-02T01:00:14.312Z,51.22
2022-11-02T01:05:53.286Z,54.75
2022-11-02T01:11:31.291Z,50.93
2022-11-02T01:17:08.265Z,52.15
2022-11-02T01:22:47.260Z,54.00
2022-11-02T01:28:24.277Z,49.33
2022-11-02T01:34:01.278Z,53.60
2022-11-02T01:39:39.273Z,56.83
2022-11-02T01:45:16.264Z,51.13
2022-11-02T01:50:53.264Z,48.67
2022-11-02T01:56:36.239Z,54.63
2022-11-02T02:02:13.369Z,50.38
2022-11-02T02:07:52.320Z,53.95
2022-11-02T02:13:31.248Z,60.27
2022-11-02T02:19:14.256Z,55.07
2022-11-02T02:25:03.281Z,54.97
2022-11-02T02:30:46.279Z,53.57
2022-11-02T02:36:30.255Z,55.80
2022-11-02T02:42:14.257Z,59.45
2022-11-02T02:47:57.240Z,65.00
2022-11-02T02:53:38.245Z,61.47
2022-11-02T02:59:21.251Z,81.35
2022-11-02T03:05:01.284Z,62.92
2022-11-02T03:10:45.260Z,64.63
2022-11-02T03:16:30.260Z,65.13
2022-11-02T03:22:16.284Z,64.55
2022-11-02T03:28:00.320Z,69.72
2022-11-02T03:33:45.233Z,66.18
2022-11-02T03:39:27.236Z,74.78
2022-11-02T03:45:10.244Z,68.75
2022-11-02T03:50:51.260Z,68.93
2022-11-02T03:56:35.328Z,62.00
2022-11-02T04:02:13.361Z,67.50
2022-11-02T04:08:12.293Z,66.00
2022-11-02T04:14:08.251Z,65.15
2022-11-02T04:19:49.673Z,65.72
2022-11-02T04:25:30.236Z,64.82
2022-11-02T04:31:19.222Z,70.93
2022-11-02T04:36:56.222Z,67.68
2022-11-02T04:42:33.240Z,69.90
2022-11-02T04:48:16.249Z,75.95
2022-11-02T04:53:53.238Z,86.68
2022-11-02T04:59:31.243Z,80.22
2022-11-02T05:05:10.212Z,75.47
2022-11-02T05:10:47.215Z,75.25
2022-11-02T05:16:26.234Z,96.13
2022-11-02T05:22:04.244Z,108.97
2022-11-02T05:27:41.228Z,113.90
2022-11-02T05:33:18.260Z,130.73
2022-11-02T05:38:56.258Z,168.98
2022-11-02T05:44:33.253Z,295.15
2022-11-02T05:50:10.239Z,370.98
2022-11-02T05:55:48.206Z,341.17
2022-11-02T06:01:26.278Z,269.15
2022-11-02T06:07:03.229Z,149.32
2022-11-02T06:12:41.227Z,234.88
2022-11-02T06:18:18.227Z,282.17
2022-11-02T06:23:55.267Z,170.13
2022-11-02T06:29:40.725Z,350.92
2022-11-02T06:35:27.371Z,295.83
2022-11-02T06:41:13.256Z,324.52
2022-11-02T06:46:51.224Z,160.73
2022-11-02T06:52:28.237Z,477.67
2022-11-02T06:58:05.271Z,255.20
2022-11-02T07:03:44.247Z,131.07
2022-11-02T07:09:14.202Z,82.93
2022-11-02T07:15:02.844Z,86.15
2022-11-02T07:20:40.242Z,80.13
2022-11-02T07:26:20.215Z,80.32
2022-11-02T07:31:57.224Z,80.57
2022-11-02T07:37:35.207Z,71.28
2022-11-02T07:43:12.228Z,64.35
2022-11-02T07:48:55.221Z,63.80
2022-11-02T07:54:33.237Z,65.70
2022-11-02T08:00:10.213Z,70.97
2022-11-02T08:05:50.201Z,68.85
2022-11-02T08:11:29.244Z,57.92
2022-11-02T08:17:06.230Z,54.45
2022-11-02T08:22:43.232Z,67.68
2022-11-02T08:28:25.221Z,56.90
2022-11-02T08:34:02.223Z,49.65
2022-11-02T08:39:39.183Z,53.42
2022-11-02T08:45:18.192Z,45.88
2022-11-02T08:50:55.240Z,43.57
2022-11-02T08:56:32.260Z,40.58
2022-11-02T09:02:10.377Z,39.08
2022-11-02T09:07:47.235Z,38.28
2022-11-02T09:13:27.351Z,41.80
2022-11-02T09:19:05.217Z,47.53
2022-11-02T09:24:42.238Z,53.95
2022-11-02T09:30:20.232Z,40.45
2022-11-02T09:36:01.206Z,39.78
2022-11-02T09:41:44.212Z,35.05
2022-11-02T09:48:14.866Z,36.15
2022-11-02T09:53:32.240Z,36.83
2022-11-02T09:59:14.244Z,25.60
2022-11-02T10:05:24.256Z,26.73
2022-11-02T10:11:16.229Z,28.23
2022-11-02T10:16:59.211Z,25.85
2022-11-02T10:22:39.210Z,20.05
2022-11-02T10:28:26.225Z,18.88
2022-11-02T10:34:03.248Z,17.50
2022-11-02T10:39:57.208Z,12.63
2022-11-02T10:45:56.235Z,16.73
2022-11-02T10:51:33.249Z,13.97
2022-11-02T10:57:11.178Z,14.27
2022-11-02T11:02:42.231Z,14.52
2022-11-02T11:08:20.193Z,16.48
2022-11-02T11:20:06.949Z,8.07
2022-11-02T11:25:44.224Z,8.35
2022-11-02T11:31:24.231Z,12.93
2022-11-02T11:37:02.237Z,11.95
2022-11-02T11:42:41.176Z,8.75
2022-11-02T11:48:35.214Z,8.73
2022-11-02T11:54:38.215Z,11.07
2022-11-02T12:00:16.309Z,10.13
2022-11-02T12:06:13.254Z,9.65
2022-11-02T12:12:02.198Z,6.45
2022-11-02T12:17:53.245Z,8.03
2022-11-02T12:23:47.258Z,9.45
2022-11-02T12:29:52.218Z,8.65
2022-11-02T12:36:10.236Z,7.82
2022-11-02T12:42:00.214Z,6.00
2022-11-02T12:47:53.390Z,5.78
2022-11-02T12:53:55.247Z,8.85
2022-11-02T12:59:36.235Z,6.15
2022-11-02T13:05:18.230Z,6.97
2022-11-02T13:10:59.219Z,6.68
2022-11-02T13:16:45.191Z,10.18
2022-11-02T13:22:28.251Z,7.47
2022-11-02T13:28:09.553Z,12.77
2022-11-02T13:33:55.422Z,8.38
2022-11-02T13:39:41.213Z,12.40
2022-11-02T13:45:51.195Z,13.48
2022-11-02T13:51:39.222Z,8.88
2022-11-02T13:57:17.261Z,10.77
2022-11-02T14:02:57.243Z,8.63
2022-11-02T14:08:40.233Z,13.68
2022-11-02T14:14:34.357Z,15.02
2022-11-02T14:20:11.186Z,11.45
2022-11-02T14:26:01.199Z,18.88
2022-11-02T14:31:53.228Z,25.75
2022-11-02T14:37:53.197Z,21.58
2022-11-02T14:44:12.229Z,18.35
2022-11-02T14:49:54.185Z,19.93
2022-11-02T14:55:38.194Z,28.00
2022-11-02T15:01:17.190Z,21.48
2022-11-02T15:07:06.196Z,24.80
2022-11-02T15:13:02.384Z,21.63
2022-11-02T15:18:48.216Z,29.77
2022-11-02T15:24:40.236Z,25.50
2022-11-02T15:30:22.637Z,31.08
2022-11-02T15:36:08.266Z,22.65
2022-11-02T15:41:53.190Z,24.75
2022-11-02T15:47:35.213Z,27.58
2022-11-02T15:53:31.198Z,33.95
2022-11-02T15:59:31.179Z,88.13
2022-11-02T16:05:12.193Z,71.72
2022-11-02T16:10:50.213Z,31.77
2022-11-02T16:16:35.669Z,68.47
2022-11-02T16:22:14.320Z,46.40
2022-11-02T16:27:52.169Z,36.90
2022-11-02T16:33:43.247Z,16.60
2022-11-02T16:39:33.366Z,20.05
2022-11-02T16:50:42.218Z,22.10
2022-11-02T16:56:39.189Z,27.90
2022-11-02T17:02:18.279Z,33.30
2022-11-02T17:08:01.181Z,42.03
2022-11-02T17:13:39.170Z,40.80
2022-11-02T17:19:17.194Z,47.92
2022-11-02T17:24:55.214Z,59.03
2022-11-02T17:31:01.186Z,50.92
2022-11-02T17:36:38.191Z,56.15
2022-11-02T17:42:33.205Z,54.53
2022-11-02T17:48:11.185Z,139.43
2022-11-02T17:53:48.191Z,114.30
2022-11-02T17:59:26.179Z,173.23
2022-11-02T18:05:03.160Z,134.15
2022-11-02T18:10:43.160Z,76.78
2022-11-02T18:16:22.196Z,181.25
2022-11-02T18:21:59.182Z,284.17
2022-11-02T18:27:36.179Z,192.07
2022-11-02T18:33:39.710Z,46.40
2022-11-02T18:39:26.157Z,31.90
2022-11-02T18:44:56.163Z,44.63
2022-11-02T18:50:34.159Z,32.63
2022-11-02T18:56:17.157Z,37.15
2022-11-02T19:01:54.290Z,49.42
2022-11-02T19:07:49.182Z,52.50
2022-11-02T19:13:26.167Z,46.55
2022-11-02T19:19:03.181Z,53.72
2022-11-02T19:24:41.152Z,43.33
2022-11-02T19:30:18.156Z,46.88
2022-11-02T19:35:55.195Z,61.42
2022-11-02T19:41:34.164Z,49.60
2022-11-02T19:47:11.170Z,47.80
2022-11-02T19:52:52.249Z,34.65
2022-11-02T19:58:30.244Z,63.83
2022-11-02T20:04:08.154Z,38.92
2022-11-02T20:09:45.155Z,40.40
2022-11-02T20:15:24.144Z,38.10
2022-11-02T20:21:01.176Z,47.07
2022-11-02T20:26:41.198Z,53.00
2022-11-02T20:32:20.166Z,39.83
2022-11-02T20:37:57.222Z,41.57
2022-11-02T20:43:34.170Z,40.05
2022-11-02T20:49:29.004Z,48.33
2022-11-02T20:55:09.150Z,42.72
2022-11-02T21:00:46.189Z,43.63
2022-11-02T21:06:24.169Z,42.95
2022-11-02T21:12:19.189Z,65.70
2022-11-02T21:17:56.162Z,69.72
2022-11-02T21:24:03.750Z,58.08
2022-11-02T21:29:43.241Z,55.85
2022-11-02T21:35:21.165Z,72.53
2022-11-02T21:40:59.178Z,230.05
2022-11-02T21:46:38.177Z,92.15
2022-11-02T21:52:15.173Z,148.07
2022-11-02T21:57:53.156Z,133.93
2022-11-02T22:03:30.152Z,75.05
2022-11-02T22:09:07.151Z,65.57
2022-11-02T22:14:45.210Z,49.30
2022-11-02T22:20:23.164Z,59.05
2022-11-02T22:26:00.163Z,66.18
2022-11-02T22:31:51.201Z,57.50
2022-11-02T22:37:47.149Z,51.88
2022-11-02T22:43:24.148Z,62.55
2022-11-02T22:49:02.153Z,64.90
2022-11-02T22:54:39.150Z,51.97
2022-11-02T23:00:16.152Z,46.97
2022-11-02T23:05:54.162Z,49.40
2022-11-02T23:11:33.172Z,54.08
2022-11-02T23:17:10.130Z,53.00
2022-11-02T23:23:05.384Z,52.90
2022-11-02T23:28:59.139Z,50.40
2022-11-02T23:34:36.155Z,52.72
2022-11-02T23:40:14.142Z,71.43
2022-11-02T23:45:51.166Z,75.38
2022-11-02T23:51:45.118Z,54.20
2022-11-02T23:57:23.171Z,59.88
